Time;durP1;ratioP1;P1;durP2;ratioP2;P2;SDS_P1;SDS_P2;PMS_P1;PMS_P2;Temp;Humidity;BMP_temperature;BMP_pressure;BME280_temperature;BME280_humidity;BME280_pressure;Samples;Min_cycle;Max_cycle;Signal;HPM_P1;HPM_P2
2022/12/25 00:01:14;;;;;;;18.77;6.13;;;8.50;99.90;;;;;;5051708;28;20048;-83
2022/12/25 00:03:39;;;;;;;16.80;6.75;;;8.50;99.90;;;;;;5051671;28;20450;-85
2022/12/25 00:06:06;;;;;;;20.85;7.32;;;8.50;99.90;;;;;;5051773;28;20047;-83
2022/12/25 00:08:31;;;;;;;14.68;6.50;;;8.60;99.90;;;;;;5069623;28;20119;-85
2022/12/25 00:10:59;;;;;;;25.27;7.82;;;8.70;99.90;;;;;;5069070;28;20535;-85
2022/12/25 00:13:25;;;;;;;26.30;7.65;;;8.70;99.90;;;;;;5051143;28;20057;-84
2022/12/25 00:15:51;;;;;;;17.40;6.50;;;8.70;99.90;;;;;;5051617;28;20092;-84
2022/12/25 00:18:16;;;;;;;22.60;7.45;;;8.80;99.90;;;;;;5051320;28;20560;-86
2022/12/25 00:20:42;;;;;;;15.80;6.65;;;8.80;99.90;;;;;;5051304;28;20032;-83
2022/12/25 00:23:08;;;;;;;19.73;7.78;;;8.80;99.90;;;;;;5062827;28;20044;-83
2022/12/25 00:25:37;;;;;;;23.33;7.45;;;8.80;99.90;;;;;;5051349;28;20035;-85
2022/12/25 00:28:03;;;;;;;16.48;6.43;;;8.90;99.90;;;;;;5069455;28;20108;-84
2022/12/25 00:30:29;;;;;;;17.35;6.30;;;8.90;99.90;;;;;;5051237;28;20119;-83
2022/12/25 00:32:56;;;;;;;21.35;7.13;;;8.90;99.90;;;;;;5068581;28;20082;-84
2022/12/25 00:35:22;;;;;;;21.70;7.25;;;8.90;99.90;;;;;;5069307;28;20112;-84
2022/12/25 00:37:47;;;;;;;18.98;6.72;;;8.90;99.90;;;;;;5050809;28;20119;-83
2022/12/25 00:40:13;;;;;;;15.90;6.38;;;8.90;99.90;;;;;;5050943;28;20045;-83
2022/12/25 00:42:38;;;;;;;19.55;6.25;;;8.90;99.90;;;;;;5050735;28;20029;-84
2022/12/25 00:45:04;;;;;;;20.52;7.68;;;8.90;99.90;;;;;;5051468;28;20428;-83
2022/12/25 00:47:30;;;;;;;17.20;6.50;;;8.90;99.90;;;;;;5069813;28;20098;-84
2022/12/25 00:49:56;;;;;;;18.88;6.75;;;8.90;99.90;;;;;;5051543;28;20052;-84
2022/12/25 00:52:22;;;;;;;19.13;6.32;;;8.90;99.90;;;;;;5050835;28;20063;-85
2022/12/25 00:54:47;;;;;;;16.60;6.40;;;8.90;99.90;;;;;;5052602;28;20113;-83
2022/12/25 00:57:14;;;;;;;14.05;5.55;;;8.80;99.90;;;;;;5054383;28;20025;-83
2022/12/25 00:59:40;;;;;;;17.75;6.53;;;8.80;99.90;;;;;;5051627;28;20032;-83
2022/12/25 01:02:24;;;;;;;13.48;6.15;;;8.80;99.90;;;;;;5056389;28;20495;-82
2022/12/25 01:04:52;;;;;;;13.40;6.20;;;8.80;99.90;;;;;;5076342;28;20031;-84
2022/12/25 01:07:18;;;;;;;13.27;5.70;;;8.80;99.90;;;;;;5058082;28;20033;-83
2022/12/25 01:12:31;;;;;;;21.65;6.75;;;8.70;99.90;;;;;;5074655;28;20043;-83
2022/12/25 01:14:57;;;;;;;21.90;8.13;;;8.70;99.90;;;;;;5071674;28;20024;-83
2022/12/25 01:17:22;;;;;;;14.95;6.65;;;8.70;99.90;;;;;;5054008;28;20032;-83
2022/12/25 01:19:48;;;;;;;15.98;6.70;;;8.70;99.90;;;;;;5057554;28;20424;-83
2022/12/25 01:22:15;;;;;;;16.40;5.82;;;8.80;99.90;;;;;;5057385;28;20103;-83
2022/12/25 01:24:44;;;;;;;14.52;6.03;;;8.80;99.90;;;;;;5057819;28;20020;-83
2022/12/25 01:27:11;;;;;;;21.80;7.75;;;8.70;99.90;;;;;;5057985;28;20039;-84
2022/12/25 01:29:37;;;;;;;18.33;6.68;;;8.80;99.90;;;;;;5057688;28;20432;-84
2022/12/25 01:32:03;;;;;;;15.52;7.03;;;8.80;99.90;;;;;;5056997;28;20273;-84
2022/12/25 01:34:29;;;;;;;17.48;6.40;;;8.80;99.90;;;;;;5056223;28;20142;-83
2022/12/25 01:36:55;;;;;;;16.67;6.72;;;8.80;99.90;;;;;;5056780;28;20391;-84
2022/12/25 01:39:20;;;;;;;20.13;7.50;;;8.90;99.90;;;;;;5057382;28;20575;-84
2022/12/25 01:41:47;;;;;;;15.93;6.50;;;8.90;99.90;;;;;;5075705;28;20742;-84
2022/12/25 01:44:18;;;;;;;14.32;6.18;;;8.90;99.90;;;;;;5057341;28;20456;-84
2022/12/25 01:46:44;;;;;;;15.23;5.35;;;8.90;99.90;;;;;;5055100;28;20032;-85
2022/12/25 01:49:37;;;;;;;13.40;5.50;;;8.90;99.90;;;;;;5057251;28;20032;-83
2022/12/25 01:52:21;;;;;;;9.60;5.07;;;8.90;99.90;;;;;;5068829;28;20037;-84
2022/12/25 01:54:58;;;;;;;7.88;4.68;;;8.90;99.90;;;;;;5055473;28;20021;-84
2022/12/25 01:57:29;;;;;;;14.20;5.30;;;8.90;99.90;;;;;;5040095;28;20074;-84
2022/12/25 01:59:56;;;;;;;16.17;5.75;;;8.90;99.90;;;;;;5057099;28;20467;-84
2022/12/25 02:02:22;;;;;;;14.98;5.95;;;8.90;99.90;;;;;;5054221;28;20044;-84
2022/12/25 02:05:03;;;;;;;13.75;5.53;;;8.90;99.90;;;;;;5057451;28;20472;-83
2022/12/25 02:07:32;;;;;;;14.40;6.45;;;8.90;99.90;;;;;;5037539;28;20040;-84
2022/12/25 02:09:58;;;;;;;11.07;5.20;;;9.00;99.90;;;;;;5060215;28;20027;-84
2022/12/25 02:12:30;;;;;;;12.15;5.40;;;9.00;99.90;;;;;;5056596;28;20020;-84
2022/12/25 02:14:59;;;;;;;12.80;5.67;;;9.00;99.90;;;;;;5075002;28;20028;-85
2022/12/25 02:17:52;;;;;;;11.77;5.55;;;9.00;99.90;;;;;;5057211;28;20068;-83
2022/12/25 02:20:38;;;;;;;14.43;5.97;;;9.00;99.90;;;;;;5057480;28;20119;-84
2022/12/25 02:23:22;;;;;;;16.27;6.80;;;9.00;99.90;;;;;;5057234;28;20028;-84
2022/12/25 02:25:57;;;;;;;17.45;6.90;;;9.00;99.90;;;;;;5057476;28;20345;-85
2022/12/25 02:28:38;;;;;;;17.00;6.22;;;9.00;99.90;;;;;;5057300;28;20036;-84
2022/12/25 02:31:17;;;;;;;12.68;7.05;;;9.00;99.90;;;;;;5056954;28;20040;-83
2022/12/25 02:34:03;;;;;;;17.50;6.47;;;9.00;99.90;;;;;;5057294;28;20082;-84
2022/12/25 02:36:38;;;;;;;16.95;7.40;;;9.00;99.90;;;;;;5056344;28;20029;-84
2022/12/25 03:08:02;;;;;;;17.85;6.60;;;8.70;99.90;;;;;;5074644;28;20044;-84
2022/12/25 03:13:20;;;;;;;18.55;6.68;;;8.70;99.90;;;;;;5074245;28;20075;-83
2022/12/25 03:18:32;;;;;;;13.57;6.13;;;8.80;99.90;;;;;;5074023;28;20570;-84
2022/12/25 03:32:17;;;;;;;17.00;6.20;;;8.80;99.90;;;;;;5074361;28;20075;-83
2022/12/25 03:35:24;;;;;;;13.82;6.35;;;8.80;99.90;;;;;;5056226;28;20024;-82
2022/12/25 03:38:46;;;;;;;13.65;6.07;;;8.80;99.90;;;;;;5056024;28;20039;-83
2022/12/25 04:37:50;;;;;;;11.75;4.60;;;9.10;99.90;;;;;;5076953;28;20485;-83
2022/12/25 04:40:16;;;;;;;11.18;4.63;;;9.00;99.90;;;;;;5077460;28;20062;-83
2022/12/25 04:42:42;;;;;;;10.00;4.40;;;9.10;99.90;;;;;;5059089;28;20050;-83
2022/12/25 04:45:08;;;;;;;8.82;5.05;;;9.10;99.90;;;;;;5077773;28;20044;-83
2022/12/25 04:47:34;;;;;;;7.50;4.68;;;9.10;99.90;;;;;;5059312;28;20024;-83
2022/12/25 04:50:00;;;;;;;11.90;5.78;;;9.10;99.90;;;;;;5059290;28;20039;-82
2022/12/25 04:52:25;;;;;;;8.90;4.60;;;9.10;99.90;;;;;;5059016;28;20111;-82
2022/12/25 04:54:51;;;;;;;9.38;4.75;;;9.10;99.90;;;;;;5058612;28;20035;-83
2022/12/25 04:57:17;;;;;;;8.88;4.43;;;9.10;99.90;;;;;;5076762;28;20380;-83
2022/12/25 04:59:42;;;;;;;8.95;4.80;;;9.10;99.90;;;;;;5077165;28;20041;-83
2022/12/25 05:02:08;;;;;;;8.52;4.03;;;9.00;99.90;;;;;;5076430;28;20119;-83
2022/12/25 05:04:34;;;;;;;10.13;5.00;;;8.90;99.90;;;;;;5059120;28;20115;-83
2022/12/25 05:07:00;;;;;;;9.48;4.93;;;8.90;99.90;;;;;;5059109;28;20038;-83
2022/12/25 05:09:25;;;;;;;7.57;4.15;;;8.80;99.90;;;;;;5059130;28;20064;-82
2022/12/25 05:11:51;;;;;;;7.53;4.28;;;8.80;99.90;;;;;;5058786;28;20031;-82
2022/12/25 05:14:17;;;;;;;7.80;3.95;;;8.70;99.90;;;;;;5058925;28;20427;-83
2022/12/25 05:16:43;;;;;;;9.05;4.57;;;8.70;99.90;;;;;;5076726;28;20041;-83
2022/12/25 05:19:12;;;;;;;8.63;4.90;;;8.70;99.90;;;;;;5058770;28;20025;-83
2022/12/25 05:21:37;;;;;;;8.82;4.40;;;8.70;99.90;;;;;;5058379;28;20067;-83
2022/12/25 05:24:03;;;;;;;8.88;4.55;;;8.60;99.90;;;;;;5057893;28;20056;-83
2022/12/25 05:26:29;;;;;;;12.38;4.38;;;8.60;99.90;;;;;;5058782;28;20040;-83
2022/12/25 05:28:55;;;;;;;7.05;4.20;;;8.50;99.90;;;;;;5058721;28;20113;-82
2022/12/25 05:31:20;;;;;;;11.45;5.22;;;8.50;99.90;;;;;;5058703;28;20020;-83
2022/12/25 05:33:50;;;;;;;10.15;5.13;;;8.50;99.90;;;;;;5076541;28;20100;-82
2022/12/25 05:36:16;;;;;;;9.23;4.78;;;8.50;99.90;;;;;;5058512;28;20047;-83
2022/12/25 05:38:42;;;;;;;10.23;4.57;;;8.50;99.90;;;;;;5076573;28;20029;-82
2022/12/25 05:41:07;;;;;;;9.15;5.07;;;8.40;99.90;;;;;;5058580;28;20494;-82
2022/12/25 05:43:33;;;;;;;9.48;4.93;;;8.40;99.90;;;;;;5058108;28;20036;-83
2022/12/25 05:46:05;;;;;;;9.13;5.05;;;8.40;99.90;;;;;;5058270;28;20111;-82
2022/12/25 05:48:31;;;;;;;10.95;5.57;;;8.30;99.90;;;;;;5058259;28;20028;-83
2022/12/25 05:50:57;;;;;;;14.02;6.03;;;8.30;99.90;;;;;;5058147;28;20020;-83
2022/12/25 05:53:28;;;;;;;12.50;6.00;;;8.30;99.90;;;;;;5058125;28;20036;-83
2022/12/25 05:56:01;;;;;;;12.30;6.45;;;8.30;99.90;;;;;;5058050;28;20024;-85
2022/12/25 05:58:28;;;;;;;9.15;6.03;;;8.30;99.90;;;;;;5058083;28;20040;-82
2022/12/25 06:00:57;;;;;;;13.95;5.60;;;8.30;99.90;;;;;;5057693;28;20446;-83
2022/12/25 06:03:23;;;;;;;11.25;5.22;;;8.30;99.90;;;;;;5057844;28;20468;-83
2022/12/25 06:05:49;;;;;;;10.13;6.05;;;8.30;99.90;;;;;;5075918;28;20035;-82
2022/12/25 06:08:15;;;;;;;11.23;5.82;;;8.30;99.90;;;;;;5057074;28;20036;-83
2022/12/25 06:10:40;;;;;;;11.23;5.95;;;8.30;99.90;;;;;;5057733;28;20028;-83
2022/12/25 06:13:06;;;;;;;11.63;6.30;;;8.20;99.90;;;;;;5057854;28;20021;-82
2022/12/25 06:15:32;;;;;;;10.57;5.63;;;8.30;99.90;;;;;;5075917;28;20024;-83
2022/12/25 06:18:00;;;;;;;10.27;5.13;;;8.30;99.90;;;;;;5057414;28;20037;-82
2022/12/25 06:20:26;;;;;;;9.57;5.25;;;8.30;99.90;;;;;;5075539;28;20085;-83
2022/12/25 06:22:52;;;;;;;8.55;4.97;;;8.20;99.90;;;;;;5057764;28;20119;-82
2022/12/25 06:25:18;;;;;;;7.85;4.60;;;8.20;99.90;;;;;;5057442;28;20025;-82
2022/12/25 06:27:45;;;;;;;10.85;5.07;;;8.20;99.90;;;;;;5057745;28;20414;-82
2022/12/25 06:30:11;;;;;;;10.95;5.88;;;8.30;99.90;;;;;;5057343;28;20025;-82
2022/12/25 06:32:37;;;;;;;12.07;5.70;;;8.30;99.90;;;;;;5057402;28;20024;-83
2022/12/25 06:35:03;;;;;;;11.35;5.90;;;8.30;99.90;;;;;;5056663;28;20031;-82
2022/12/25 06:37:29;;;;;;;9.25;5.32;;;8.30;99.90;;;;;;5074330;28;20036;-82
2022/12/25 06:39:55;;;;;;;9.82;5.55;;;8.40;99.90;;;;;;5053284;28;20048;-83
2022/12/25 06:42:21;;;;;;;8.15;5.05;;;8.40;99.90;;;;;;5054116;28;20029;-82
2022/12/25 06:44:47;;;;;;;10.27;5.60;;;8.50;99.90;;;;;;5053720;28;20033;-83
2022/12/25 06:47:12;;;;;;;13.32;5.63;;;8.50;99.90;;;;;;5054604;28;20526;-82
2022/12/25 06:49:39;;;;;;;11.48;5.22;;;8.50;99.90;;;;;;5055229;28;20029;-83
2022/12/25 06:52:05;;;;;;;9.43;4.93;;;8.50;99.90;;;;;;5055057;28;20032;-83
2022/12/25 06:54:31;;;;;;;8.48;5.13;;;8.50;99.90;;;;;;5053696;28;20414;-83
2022/12/25 06:56:56;;;;;;;7.82;4.28;;;8.50;99.90;;;;;;5054144;28;20044;-83
2022/12/25 06:59:22;;;;;;;7.63;3.70;;;8.50;99.90;;;;;;5052559;28;20029;-83
2022/12/25 07:01:53;;;;;;;8.40;4.03;;;8.60;99.90;;;;;;5054533;28;20032;-82
2022/12/25 07:04:26;;;;;;;6.93;3.53;;;8.50;99.90;;;;;;5054852;28;20025;-83
2022/12/25 07:06:51;;;;;;;6.65;3.65;;;8.50;99.90;;;;;;5053293;28;20024;-83
2022/12/25 07:09:17;;;;;;;7.47;4.10;;;8.50;99.90;;;;;;5054175;28;20039;-83
2022/12/25 07:11:46;;;;;;;10.20;4.18;;;8.60;99.90;;;;;;5052762;28;20025;-83
2022/12/25 07:14:21;;;;;;;7.22;3.78;;;8.60;99.90;;;;;;5052680;28;20036;-83
2022/12/25 07:16:46;;;;;;;7.13;3.85;;;8.60;99.90;;;;;;5053106;28;20033;-83
2022/12/25 07:19:12;;;;;;;7.38;3.80;;;8.60;99.90;;;;;;5053124;28;20059;-84
2022/12/25 07:21:46;;;;;;;6.47;3.60;;;8.60;99.90;;;;;;5053866;28;20037;-83
2022/12/25 07:24:16;;;;;;;;;;;8.60;99.90;;;;;;5054929;28;20029;-83
2022/12/25 07:26:42;;;;;;;5.53;2.92;;;8.60;99.90;;;;;;5052752;28;19991;-83
2022/12/25 07:29:07;;;;;;;4.88;3.05;;;8.60;99.90;;;;;;5052942;28;20068;-82
2022/12/25 07:31:33;;;;;;;6.50;3.90;;;8.60;99.90;;;;;;5053844;28;20033;-82
2022/12/25 07:34:02;;;;;;;7.00;3.42;;;8.60;99.90;;;;;;5053752;28;20167;-82
2022/12/25 07:36:28;;;;;;;5.88;3.50;;;8.60;99.90;;;;;;5053751;28;20029;-83
2022/12/25 07:38:55;;;;;;;6.13;3.47;;;8.70;99.90;;;;;;5054856;28;20031;-82
2022/12/25 07:41:21;;;;;;;8.05;3.95;;;8.70;99.90;;;;;;5056203;28;20031;-82
2022/12/25 07:43:53;;;;;;;6.07;3.40;;;8.70;99.90;;;;;;5055420;28;20036;-82
2022/12/25 07:46:20;;;;;;;8.60;4.03;;;8.80;99.90;;;;;;5055992;28;20041;-83
2022/12/25 07:48:46;;;;;;;7.68;4.20;;;8.70;99.90;;;;;;5056080;28;20048;-82
2022/12/25 07:51:15;;;;;;;7.80;3.92;;;8.80;99.90;;;;;;5055740;28;20460;-82
2022/12/25 07:53:45;;;;;;;7.88;4.32;;;8.80;99.90;;;;;;5073844;28;20040;-83
2022/12/25 07:56:14;;;;;;;7.40;4.20;;;8.80;99.90;;;;;;5073418;28;20031;-85
2022/12/25 07:58:41;;;;;;;6.57;4.13;;;8.80;99.90;;;;;;5073291;28;20040;-83
2022/12/25 08:01:18;;;;;;;8.98;4.50;;;8.90;99.90;;;;;;5055647;28;20101;-82
2022/12/25 08:03:49;;;;;;;8.02;4.82;;;8.80;99.90;;;;;;5055746;28;20102;-82
2022/12/25 08:06:14;;;;;;;8.82;4.75;;;8.90;99.90;;;;;;5055551;28;20020;-83
2022/12/25 08:08:43;;;;;;;7.78;3.75;;;8.90;99.90;;;;;;5054799;28;20094;-82
2022/12/25 08:11:09;;;;;;;8.27;4.35;;;8.90;99.90;;;;;;5071737;28;20099;-83
2022/12/25 08:13:35;;;;;;;7.05;4.03;;;8.90;99.90;;;;;;5054351;28;20032;-82
2022/12/25 08:16:03;;;;;;;9.77;4.50;;;8.90;99.90;;;;;;5073704;28;20071;-82
2022/12/25 08:18:30;;;;;;;8.57;4.25;;;8.90;99.90;;;;;;5055400;28;20033;-83
2022/12/25 08:21:12;;;;;;;6.97;4.25;;;8.90;99.90;;;;;;5073652;28;20024;-83
2022/12/25 08:23:43;;;;;;;10.05;4.50;;;9.00;99.90;;;;;;5055040;28;20542;-83
2022/12/25 08:26:18;;;;;;;9.23;4.22;;;9.00;99.90;;;;;;5055514;28;20069;-83
2022/12/25 08:28:44;;;;;;;7.43;5.07;;;9.00;99.90;;;;;;5055153;28;20108;-82
2022/12/25 08:31:18;;;;;;;8.55;4.32;;;9.00;99.90;;;;;;5055408;28;20025;-83
2022/12/25 08:33:45;;;;;;;8.88;4.35;;;9.00;99.90;;;;;;5073544;28;20021;-82
2022/12/25 08:36:11;;;;;;;7.47;4.15;;;9.00;99.90;;;;;;5054830;28;20029;-83
2022/12/25 08:38:38;;;;;;;7.00;3.72;;;9.00;99.90;;;;;;5054827;28;20029;-82
2022/12/25 08:41:04;;;;;;;7.95;4.07;;;9.00;99.90;;;;;;5073232;28;20067;-82
2022/12/25 08:43:30;;;;;;;6.93;3.65;;;9.10;99.90;;;;;;5055117;28;20040;-83
2022/12/25 08:46:03;;;;;;;7.25;3.45;;;9.10;99.90;;;;;;5073339;28;20029;-83
2022/12/25 08:48:30;;;;;;;6.43;3.83;;;9.10;99.90;;;;;;5055124;28;20040;-83
2022/12/25 08:50:56;;;;;;;7.32;3.95;;;9.10;99.90;;;;;;5073533;28;20398;-82
2022/12/25 08:53:23;;;;;;;9.38;4.53;;;9.10;99.90;;;;;;5055072;28;20112;-82
2022/12/25 08:55:49;;;;;;;7.88;3.53;;;9.10;99.90;;;;;;5072064;28;20035;-82
2022/12/25 08:58:15;;;;;;;6.15;3.78;;;9.10;99.90;;;;;;5054759;28;20136;-83
2022/12/25 09:00:41;;;;;;;5.55;3.00;;;9.10;99.90;;;;;;5054374;28;20021;-83
2022/12/25 09:03:07;;;;;;;7.47;3.45;;;9.10;99.90;;;;;;5054911;28;20086;-83
2022/12/25 09:05:37;;;;;;;7.00;3.17;;;9.10;99.90;;;;;;5054971;28;20033;-83
2022/12/25 09:08:02;;;;;;;5.97;3.20;;;9.10;99.90;;;;;;5073148;28;20115;-84
2022/12/25 09:10:28;;;;;;;4.45;2.67;;;9.20;99.90;;;;;;5072617;28;20059;-83
2022/12/25 09:12:54;;;;;;;5.45;2.83;;;9.20;99.90;;;;;;5054968;28;20082;-83
2022/12/25 09:15:20;;;;;;;6.47;2.85;;;9.20;99.90;;;;;;5054943;28;20029;-82
2022/12/25 09:17:46;;;;;;;4.97;2.83;;;9.20;99.90;;;;;;5054854;28;20037;-82
2022/12/25 09:20:12;;;;;;;4.53;2.80;;;9.20;99.90;;;;;;5054523;28;20028;-83
2022/12/25 09:22:37;;;;;;;6.45;3.05;;;9.20;99.90;;;;;;5055741;28;20028;-82
2022/12/25 09:25:03;;;;;;;4.97;2.40;;;9.30;99.90;;;;;;5058434;28;20036;-82
2022/12/25 09:27:29;;;;;;;5.45;2.42;;;9.30;99.90;;;;;;5076425;28;20125;-83
2022/12/25 09:29:55;;;;;;;7.07;2.88;;;9.30;99.90;;;;;;5058528;28;20066;-83
2022/12/25 09:32:21;;;;;;;5.50;2.85;;;9.30;99.90;;;;;;5058500;28;20479;-82
2022/12/25 09:34:47;;;;;;;6.55;2.85;;;9.30;99.90;;;;;;5057983;28;20028;-83
2022/12/25 09:37:12;;;;;;;5.95;2.30;;;9.30;99.90;;;;;;5057433;28;20041;-83
2022/12/25 09:39:39;;;;;;;6.10;2.90;;;9.30;99.90;;;;;;5076318;28;20372;-83
2022/12/25 09:42:19;;;;;;;6.20;2.97;;;9.30;99.90;;;;;;5057913;28;20033;-83
2022/12/25 09:44:56;;;;;;;4.93;2.60;;;9.30;99.90;;;;;;5075918;28;20040;-83
2022/12/25 09:47:30;;;;;;;5.43;3.00;;;9.30;99.90;;;;;;5058165;28;20078;-83
2022/12/25 09:50:10;;;;;;;;;;;9.30;99.90;;;;;;5058532;28;20035;-83
2022/12/25 09:53:14;;;;;;;5.68;3.05;;;9.30;99.90;;;;;;5058089;28;19900;-83
2022/12/25 09:55:48;;;;;;;5.95;2.72;;;9.30;99.90;;;;;;5056972;28;20094;-83
2022/12/25 09:58:14;;;;;;;5.88;3.20;;;9.20;99.90;;;;;;5056654;28;20047;-84
2022/12/25 10:00:51;;;;;;;6.85;3.35;;;9.20;99.90;;;;;;5074650;28;20070;-83
2022/12/25 10:03:40;;;;;;;4.90;2.80;;;9.20;99.90;;;;;;5056841;28;20033;-83
2022/12/25 10:06:17;;;;;;;6.10;2.80;;;9.20;99.90;;;;;;5056951;28;20024;-85
2022/12/25 10:08:58;;;;;;;7.07;2.75;;;9.20;99.90;;;;;;5074800;28;20039;-84
2022/12/25 10:11:42;;;;;;;4.22;2.25;;;9.20;99.90;;;;;;5071476;28;20028;-85
2022/12/25 10:14:27;;;;;;;5.72;2.10;;;9.20;99.90;;;;;;5073099;28;20055;-83
2022/12/25 10:17:02;;;;;;;5.43;2.38;;;9.30;99.90;;;;;;5056705;28;20048;-83
2022/12/25 10:19:45;;;;;;;3.95;2.00;;;9.30;99.90;;;;;;5056616;28;20059;-84
2022/12/25 10:22:22;;;;;;;4.30;2.15;;;9.30;99.90;;;;;;5038589;28;20045;-84
2022/12/25 10:24:50;;;;;;;3.30;2.30;;;9.30;99.90;;;;;;5054841;28;20021;-84
2022/12/25 10:27:24;;;;;;;4.00;2.38;;;9.30;99.90;;;;;;5054615;28;20483;-85
2022/12/25 10:29:55;;;;;;;4.40;2.20;;;9.30;99.90;;;;;;5073747;28;20086;-84
2022/12/25 10:32:21;;;;;;;3.25;2.05;;;9.30;99.90;;;;;;5051477;28;20124;-85
2022/12/25 10:34:48;;;;;;;4.35;1.98;;;9.30;99.90;;;;;;5055060;28;20028;-85
2022/12/25 10:37:15;;;;;;;3.88;2.00;;;9.30;99.90;;;;;;5055558;28;20040;-86
2022/12/25 10:39:42;;;;;;;3.15;1.77;;;9.30;99.90;;;;;;5043242;28;20064;-86
2022/12/25 10:42:21;;;;;;;4.38;2.17;;;9.30;99.90;;;;;;5032321;28;20040;-84
2022/12/25 10:45:03;;;;;;;5.63;2.03;;;9.30;99.90;;;;;;5032262;28;20029;-85
2022/12/25 10:47:32;;;;;;;4.32;2.00;;;9.30;99.90;;;;;;5032353;28;20037;-84
2022/12/25 10:49:58;;;;;;;5.18;2.20;;;9.40;99.90;;;;;;5032807;28;20021;-86
2022/12/25 10:52:27;;;;;;;4.32;2.30;;;9.30;99.90;;;;;;5032494;28;20022;-86
2022/12/25 10:54:54;;;;;;;4.63;2.15;;;9.40;99.90;;;;;;5033799;28;20025;-84
2022/12/25 10:57:22;;;;;;;4.50;2.45;;;9.40;99.90;;;;;;5031911;28;20045;-84
2022/12/25 10:59:51;;;;;;;4.47;2.55;;;9.40;99.90;;;;;;5032640;28;20056;-85
2022/12/25 11:02:27;;;;;;;5.97;2.40;;;9.40;99.90;;;;;;5032516;28;20029;-86
2022/12/25 11:05:22;;;;;;;5.72;2.80;;;9.40;99.90;;;;;;5032224;28;20031;-84
2022/12/25 11:07:54;;;;;;;4.70;2.42;;;9.40;99.90;;;;;;5012990;28;20061;-84
2022/12/25 11:10:35;;;;;;;6.13;2.65;;;9.40;99.90;;;;;;5032129;28;20029;-85
2022/12/25 11:13:23;;;;;;;6.10;3.05;;;9.40;99.90;;;;;;5033658;28;20029;-86
2022/12/25 11:16:12;;;;;;;6.22;3.08;;;9.40;99.90;;;;;;5032481;28;20021;-86
2022/12/25 11:18:48;;;;;;;5.90;3.33;;;9.40;99.90;;;;;;5031546;28;20685;-86
2022/12/25 11:21:16;;;;;;;5.10;3.10;;;9.40;99.90;;;;;;5030411;28;20453;-86
2022/12/25 11:23:54;;;;;;;5.57;3.25;;;9.30;99.90;;;;;;5031071;28;20474;-87
2022/12/25 11:26:20;;;;;;;7.65;3.60;;;9.30;99.90;;;;;;5031545;28;20029;-88
2022/12/25 11:28:51;;;;;;;6.30;3.38;;;9.30;99.90;;;;;;5031281;28;20381;-85
2022/12/25 11:31:26;;;;;;;7.68;3.75;;;9.20;99.90;;;;;;5031599;28;20156;-86
2022/12/25 11:34:20;;;;;;;5.60;3.67;;;9.20;99.90;;;;;;5031856;28;20076;-86
2022/12/25 11:36:51;;;;;;;6.20;3.60;;;9.20;99.90;;;;;;5023981;28;20500;-86
2022/12/25 11:39:39;;;;;;;7.05;4.47;;;9.20;99.90;;;;;;5034872;28;20489;-86
2022/12/25 11:42:33;;;;;;;7.75;4.18;;;9.20;99.90;;;;;;5040399;28;20032;-86
2022/12/25 11:45:24;;;;;;;6.80;4.13;;;9.20;99.90;;;;;;5039456;28;20473;-88
2022/12/25 11:48:10;;;;;;;5.63;3.38;;;9.10;99.90;;;;;;5039351;28;20687;-87
2022/12/25 11:50:44;;;;;;;6.22;3.72;;;9.20;99.90;;;;;;5050107;28;20095;-86
2022/12/25 11:53:38;;;;;;;6.63;3.45;;;9.20;99.90;;;;;;5054281;28;20040;-87
2022/12/25 11:56:25;;;;;;;5.82;3.25;;;9.20;99.90;;;;;;5056856;28;20025;-86
2022/12/25 11:58:58;;;;;;;5.40;3.60;;;9.20;99.90;;;;;;5048147;28;20491;-86
2022/12/25 12:01:37;;;;;;;6.80;4.53;;;9.20;99.90;;;;;;5048204;28;20140;-87
2022/12/25 12:04:15;;;;;;;8.68;4.88;;;9.20;99.90;;;;;;5048502;28;20037;-85
2022/12/25 12:07:06;;;;;;;8.23;5.65;;;9.20;99.90;;;;;;5047870;28;20045;-86
2022/12/25 12:09:51;;;;;;;7.97;5.20;;;9.20;99.90;;;;;;5049218;28;20025;-87
2022/12/25 12:12:46;;;;;;;7.22;4.40;;;9.20;99.90;;;;;;5047983;28;20033;-87
2022/12/25 12:15:50;;;;;;;8.57;5.00;;;9.20;99.90;;;;;;5029238;28;20071;-87
2022/12/25 12:18:35;;;;;;;8.07;4.85;;;9.20;99.90;;;;;;5018108;28;20176;-88
2022/12/25 12:21:07;;;;;;;10.25;4.57;;;9.20;99.90;;;;;;5042516;28;20044;-89
2022/12/25 12:24:06;;;;;;;7.93;5.37;;;9.30;99.90;;;;;;5048064;28;20029;-90
2022/12/25 12:26:36;;;;;;;7.13;4.65;;;9.20;99.90;;;;;;5047005;28;20120;-89
2022/12/25 12:29:05;;;;;;;6.97;4.88;;;9.20;99.90;;;;;;5048465;28;20045;-87
2022/12/25 12:31:44;;;;;;;9.18;5.82;;;9.30;99.90;;;;;;5049642;28;20083;-86
2022/12/25 12:34:41;;;;;;;10.82;5.55;;;9.30;99.90;;;;;;5047121;28;20041;-88
2022/12/25 12:37:29;;;;;;;9.35;5.75;;;9.20;99.90;;;;;;5039769;28;20056;-87
2022/12/25 12:39:56;;;;;;;9.25;5.32;;;9.20;99.90;;;;;;5033537;28;20042;-89
2022/12/25 12:42:34;;;;;;;9.00;5.40;;;9.20;99.90;;;;;;5023639;28;20030;-87
2022/12/25 12:45:14;;;;;;;10.15;4.40;;;9.20;99.90;;;;;;5025474;28;20033;-88
2022/12/25 12:47:45;;;;;;;8.65;5.60;;;9.20;99.90;;;;;;5022956;28;20575;-87
2022/12/25 12:50:39;;;;;;;10.10;5.22;;;9.20;99.90;;;;;;5027429;28;20068;-87
2022/12/25 12:53:37;;;;;;;8.93;5.53;;;9.20;99.90;;;;;;5026215;28;20515;-87
2022/12/25 12:56:19;;;;;;;9.10;5.85;;;9.20;99.90;;;;;;5010558;28;20136;-87
2022/12/25 12:58:49;;;;;;;9.75;5.43;;;9.20;99.90;;;;;;5032025;28;20049;-89
2022/12/25 13:01:42;;;;;;;10.55;5.50;;;9.20;99.90;;;;;;5033113;28;20029;-86
2022/12/25 13:04:30;;;;;;;9.57;5.82;;;9.30;99.90;;;;;;5034047;28;20115;-87
2022/12/25 13:07:27;;;;;;;8.25;5.40;;;9.20;99.90;;;;;;5034653;28;20029;-88
2022/12/25 13:09:55;;;;;;;8.40;5.60;;;9.20;99.90;;;;;;5033503;28;20025;-88
2022/12/25 13:12:22;;;;;;;7.60;4.68;;;9.20;99.90;;;;;;5033840;28;20452;-87
2022/12/25 13:14:49;;;;;;;7.90;5.38;;;9.20;99.90;;;;;;5014102;28;20466;-86
2022/12/25 13:17:22;;;;;;;8.68;5.05;;;9.20;99.90;;;;;;5023545;28;20060;-86
2022/12/25 13:19:55;;;;;;;11.55;6.28;;;9.30;99.90;;;;;;5033527;28;20028;-87
2022/12/25 13:22:40;;;;;;;10.15;6.43;;;9.30;99.90;;;;;;5033354;28;20124;-86
2022/12/25 13:25:20;;;;;;;10.50;5.85;;;9.20;99.90;;;;;;5031622;28;20065;-86
2022/12/25 13:27:56;;;;;;;10.60;6.38;;;9.20;99.90;;;;;;5028260;28;20509;-87
2022/12/25 13:30:45;;;;;;;10.27;6.63;;;9.30;99.90;;;;;;5033255;28;20103;-87
2022/12/25 13:33:20;;;;;;;7.95;5.40;;;9.30;99.90;;;;;;5030226;28;20033;-87
2022/12/25 13:35:46;;;;;;;9.75;5.88;;;9.20;99.90;;;;;;5023444;28;20369;-88
2022/12/25 13:38:22;;;;;;;8.27;5.80;;;9.30;99.90;;;;;;5032762;28;20069;-87
2022/12/25 13:43:43;;;;;;;8.18;5.60;;;9.30;99.90;;;;;;5038355;28;20059;-87
2022/12/25 13:46:14;;;;;;;11.55;7.22;;;9.20;99.90;;;;;;5052756;28;20025;-88
2022/12/25 13:48:41;;;;;;;9.55;6.32;;;9.30;99.90;;;;;;5045903;28;20029;-88
2022/12/25 13:51:15;;;;;;;8.65;5.68;;;9.30;99.90;;;;;;5032655;28;20140;-88
2022/12/25 13:53:46;;;;;;;10.90;6.63;;;9.20;99.90;;;;;;5053624;28;20129;-87
2022/12/25 13:56:15;;;;;;;9.23;6.30;;;9.30;99.90;;;;;;5052696;28;20139;-87
2022/12/25 13:58:41;;;;;;;11.05;7.78;;;9.30;99.90;;;;;;5032206;28;20052;-87
2022/12/25 14:01:14;;;;;;;11.05;7.55;;;9.30;99.90;;;;;;5048513;28;20029;-87
2022/12/25 14:03:47;;;;;;;11.32;7.57;;;9.30;99.90;;;;;;5050645;28;20033;-87
2022/12/25 14:06:22;;;;;;;12.32;9.07;;;9.30;99.90;;;;;;5052259;28;20036;-87
2022/12/25 14:08:54;;;;;;;11.77;8.68;;;9.30;99.90;;;;;;5031264;28;20033;-86
2022/12/25 14:11:28;;;;;;;14.00;9.23;;;9.30;99.90;;;;;;5039259;28;20043;-88
2022/12/25 14:14:03;;;;;;;14.27;10.20;;;9.30;99.90;;;;;;5037158;28;20067;-88
2022/12/25 14:16:33;;;;;;;11.15;8.13;;;9.20;99.90;;;;;;5040371;28;20033;-88
2022/12/25 14:19:02;;;;;;;11.70;8.68;;;9.30;99.90;;;;;;5046873;28;20033;-89
2022/12/25 14:21:55;;;;;;;11.68;7.90;;;9.30;99.90;;;;;;5053987;28;20156;-88
2022/12/25 14:24:32;;;;;;;9.55;7.05;;;9.30;99.90;;;;;;5028640;28;20125;-87
2022/12/25 14:27:01;;;;;;;10.63;7.63;;;9.30;99.90;;;;;;5042784;28;20165;-87
2022/12/25 14:29:44;;;;;;;9.85;7.03;;;9.30;99.90;;;;;;5044380;28;20091;-88
2022/12/25 14:32:17;;;;;;;9.88;7.47;;;9.40;99.90;;;;;;5054262;28;20072;-89
2022/12/25 14:34:45;;;;;;;9.10;6.90;;;9.40;99.90;;;;;;5051637;28;20021;-87
2022/12/25 14:40:29;;;;;;;10.77;7.37;;;9.40;99.90;;;;;;5005477;28;20173;-87
2022/12/25 14:42:59;;;;;;;10.60;7.07;;;9.30;99.90;;;;;;5031343;28;20037;-88
2022/12/25 14:45:37;;;;;;;11.77;8.35;;;9.40;99.90;;;;;;5032358;28;20025;-87
2022/12/25 14:48:21;;;;;;;9.60;7.43;;;9.40;99.90;;;;;;5030972;28;20076;-88
2022/12/25 14:51:16;;;;;;;9.35;7.43;;;9.30;99.90;;;;;;5029810;28;20049;-87
2022/12/25 14:53:54;;;;;;;12.25;7.90;;;9.30;99.90;;;;;;5030929;28;20068;-87
2022/12/25 14:56:22;;;;;;;11.25;8.27;;;9.40;99.90;;;;;;5031438;28;20037;-87
2022/12/25 15:02:01;;;;;;;14.00;9.18;;;9.40;99.90;;;;;;5004752;28;20084;-87
2022/12/25 15:04:42;;;;;;;14.63;9.32;;;9.40;99.90;;;;;;5030655;28;20057;-90
2022/12/25 15:07:31;;;;;;;12.55;8.95;;;9.40;99.90;;;;;;5030010;28;20049;-88
2022/12/25 15:10:20;;;;;;;14.45;8.98;;;9.40;99.90;;;;;;5031192;28;20116;-88
2022/12/25 15:12:59;;;;;;;11.75;7.95;;;9.40;99.90;;;;;;5029844;28;20036;-87